Terminal Aerodrome Forecast
Issued by NWS

Home | Current Version | Previous Version | Graphics & Text | Print | Product List | Glossary Off
Versions: 1 2 3 4 5 6 7 8 9 10 11 12 13 14 15 16 17 18 19 20 21

000
FTUS43 KDDC 202320
TAFHYS
TAF
KHYS 202320Z 2100/2124 06011KT P6SM FEW250
     FM210600 04013G22KT P6SM BKN200
     FM211200 04010KT P6SM OVC025
     FM211800 07014KT P6SM BKN050
      AMD NOT SKED=

USA.gov is the U.S. government's official web portal to all federal, state and local government web resources and services.